Loei, Thailand
Current Conditions -  °F | °C
As of 10:00 PM on Thursday 30 Oct 2014 (Local Time) from VLVT Reporting Station
Haze Haze  
Wind Chill: 81°   Ceiling: Unl
Heat Index: 88°   Visibility: 2.5mi
Dew Point: 79°   Wind: 2mph
Humidity: 94%   Direction: 220°SW
Pressure: 29.85"   Gusts: NA
Location:  17.49°N, 101.73°E
Report Text: VLVT 301500Z 22002KT 4000 BR SCT040 27/26 Q1011 NOSIG
Loading
Personal Weather Stations






























Interactive Weather Map
Tropical Storm Tracking
New forecast layout! Learn more

10-Day Weather Forecast

Advertisements
Track Severe Weather on mobile